Latest Weather Observations for Yulara

IDD60801

Issued at 4:01 pm CST Wednesday 24 August 2016 (issued every 30 minutes, with the page automatically refreshed every 10 minutes)

About weather observations | Map of weather stations | Latest weather observations for NT | Other Formats
Station Details ID: 015635 Name: YULARA AIRPORT Lat: -25.19 Lon: 130.97 Height: 492.0 m
Data from the previous 72 hours. | See also: Recent months at Yulara
Date/Time
CST
Temp
°C
App
Temp
°C
Dew
Point
°C
Rel
Hum
%
Delta-T
°C
Wind Press
QNH
hPa
Press
MSL
hPa
Rain since
9am
mm
Dir  Spd
km/h
Gust
km/h
Spd
kts
Gust
kts
24/04:00pm 18.2 13.3 1.7 33 7.6 NE 17 28 9 15 1016.4 1015.6 0.0
24/03:30pm 18.2 14.0 1.7 33 7.6 ENE 13 19 7 10 1016.3 1015.5 0.0
24/03:00pm 18.3 13.8 2.2 34 7.5 ENE 15 24 8 13 1016.6 1015.9 0.0
24/02:30pm 18.2 14.3 3.3 37 7.1 NNE 13 26 7 14 1017.0 1016.2 0.0
24/02:00pm 17.5 13.3 1.9 35 7.2 NE 13 24 7 13 1017.4 1016.6 0.0
24/01:30pm 17.2 12.8 2.8 38 6.7 NE 15 22 8 12 1017.9 1017.1 0.0
24/01:00pm 17.3 13.0 3.2 39 6.7 ENE 15 22 8 12 1018.3 1017.6 0.0
24/12:30pm 17.1 13.0 4.4 43 6.1 ENE 15 22 8 12 1018.6 1017.9 0.0
24/12:00pm 16.4 12.3 4.1 44 5.9 ENE 15 24 8 13 1019.0 1018.2 0.0
24/11:30am 16.1 12.3 3.9 44 5.8 ENE 13 22 7 12 1019.4 1018.6 0.0
24/11:00am 15.1 11.2 3.6 46 5.4 ENE 13 22 7 12 1019.7 1018.9 0.0
24/10:30am 14.7 11.7 4.1 49 5.0 E 9 17 5 9 1019.9 1019.1 0.0
24/10:00am 13.2 9.3 3.3 51 4.5 SE 13 15 7 8 1019.9 1019.1 0.0
24/09:30am 12.5 9.7 5.0 60 3.5 S 9 17 5 9 1019.6 1018.8 0.0
24/09:00am 9.6 6.4 5.2 74 2.0 S 11 15 6 8 1019.3 1018.5 3.6
24/08:30am 7.4 4.1 4.4 81 1.3 SSE 11 17 6 9 1018.7 1018.0 3.6
24/08:00am 5.8 2.0 4.1 89 0.7 SSW 13 19 7 10 1018.5 1017.8 3.6
24/07:30am 4.4 0.1 3.2 92 0.5 SSW 15 17 8 9 1018.3 1017.6 3.6
24/07:00am 3.9 0.3 3.0 94 0.4 SSW 11 13 6 7 1017.8 1017.0 3.6
24/06:30am 3.8 -0.2 2.9 94 0.4 SSW 13 15 7 8 1017.3 1016.5 3.6
24/06:00am 3.7 -0.7 2.8 94 0.4 S 15 17 8 9 1017.1 1016.3 3.6
24/05:30am 4.4 0.5 3.2 92 0.5 SSW 13 17 7 9 1016.6 1015.9 3.6
24/05:00am 4.5 0.6 3.5 93 0.4 SSW 13 15 7 8 1016.5 1015.8 3.6
24/04:30am 4.9 1.0 3.6 91 0.6 SSW 13 17 7 9 1016.4 1015.6 3.6
24/04:00am 5.1 0.9 3.6 90 0.6 SSW 15 19 8 10 1016.4 1015.6 3.6
24/03:30am 5.5 1.3 3.8 89 0.7 SSW 15 19 8 10 1016.4 1015.6 3.6
24/03:00am 5.5 1.3 4.0 90 0.7 SSW 15 19 8 10 1016.3 1015.5 3.6
24/02:30am 5.5 1.4 4.2 91 0.6 SSW 15 17 8 9 1016.1 1015.3 3.6
24/02:00am 5.4 1.3 4.4 93 0.4 SSW 15 17 8 9 1016.2 1015.4 3.6
24/01:30am 5.4 2.1 4.7 95 0.3 SSW 11 15 6 8 1016.4 1015.6 3.6
24/01:00am 5.4 1.7 4.7 95 0.3 SSW 13 15 7 8 1016.3 1015.5 3.6
24/12:30am 5.8 2.6 5.1 95 0.3 S 11 13 6 7 1016.4 1015.6 3.6
24/12:00am 6.1 2.6 5.4 95 0.3 S 13 15 7 8 1016.6 1015.9 3.6
 
Date/Time
CST
Temp
°C
App
Temp
°C
Dew
Point
°C
Rel
Hum
%
Delta-T
°C
Wind Press
QNH
hPa
Press
MSL
hPa
Rain since
9am
mm
Dir  Spd
km/h
Gust
km/h
Spd
kts
Gust
kts
23/11:30pm 6.3 3.2 5.6 95 0.3 S 11 13 6 7 1016.8 1016.0 3.6
23/11:00pm 6.9 4.6 5.8 93 0.5 SSW 7 11 4 6 1016.8 1016.0 3.6
23/10:30pm 6.7 3.6 5.5 92 0.5 SSW 11 13 6 7 1016.6 1015.9 3.6
23/10:00pm 7.2 4.2 5.8 91 0.6 SSW 11 13 6 7 1016.6 1015.9 3.6
23/09:30pm 7.6 5.3 5.7 88 0.9 SSW 7 9 4 5 1016.6 1015.9 3.6
23/09:00pm 8.0 5.8 6.1 88 0.9 SSE 7 9 4 5 1016.5 1015.8 3.6
23/08:30pm 8.7 5.8 6.3 85 1.1 S 11 17 6 9 1016.2 1015.4 3.6
23/08:00pm 9.0 6.1 6.6 85 1.1 SSE 11 13 6 7 1015.8 1015.0 3.6
23/07:30pm 9.9 7.9 7.0 82 1.4 ESE 7 9 4 5 1015.2 1014.4 3.6
23/07:00pm 10.6 8.1 6.7 77 1.9 ESE 9 13 5 7 1014.7 1013.8 3.6
23/06:30pm 11.3 7.3 6.6 73 2.3 ESE 17 24 9 13 1014.2 1013.4 3.6
23/06:00pm 12.0 6.6 6.3 68 2.8 SE 24 35 13 19 1013.4 1012.6 3.6
23/05:30pm 11.9 5.4 6.6 70 2.6 ESE 30 43 16 23 1013.0 1012.2 3.6
23/05:06pm 11.6 5.3 7.5 76 2.0 SE 30 48 16 26 1013.0 1012.2 3.6
23/05:00pm 11.5 4.7 7.6 77 1.9 SE 33 48 18 26 1012.8 1011.9 3.6
23/04:35pm 11.2 5.9 8.6 84 1.3 SSE 26 41 14 22 1013.1 1012.3 3.6
23/04:30pm 10.7 5.8 8.6 87 1.1 SSE 24 32 13 17 1013.3 1012.5 3.2
23/04:12pm 10.1 4.3 8.0 87 1.0 S 28 46 15 25 1013.9 1013.1 1.8
23/04:10pm 10.2 3.9 7.6 84 1.3 S 30 46 16 25 1013.8 1013.0 1.2
23/04:01pm 11.2 4.4 6.7 74 2.2 SSE 32 50 17 27 1013.2 1012.4 0.2
23/04:00pm 11.3 4.2 6.4 72 2.4 SSE 33 50 18 27 1013.1 1012.3 0.2
23/03:30pm 13.2 4.7 5.1 58 3.9 SSE 39 59 21 32 1011.5 1010.7 0.0
23/03:14pm 15.9 10.1 4.6 47 5.4 SSE 24 57 13 31 1010.7 1009.8 0.0
23/03:13pm 16.0 10.9 4.1 45 5.7 SE 20 57 11 31 1010.6 1009.7 0.0
23/03:00pm 20.0 16.8 3.3 33 8.1 N 9 15 5 8 1009.9 1009.1 0.0
23/02:30pm 18.2 14.5 2.5 35 7.4 SW 11 15 6 8 1010.0 1009.2 0.0
23/02:00pm 18.9 16.1 5.0 40 6.9 WSW 9 15 5 8 1010.2 1009.4 0.0
23/01:30pm 17.8 14.6 5.1 43 6.3 WNW 11 19 6 10 1010.8 1009.9 0.0
23/01:00pm 17.2 14.2 6.1 48 5.6 ENE 11 22 6 12 1011.5 1010.7 0.0
23/12:30pm 17.5 14.3 7.0 50 5.4 NE 13 20 7 11 1011.9 1011.1 0.0
23/12:00pm 16.6 13.7 6.7 52 5.0 ENE 11 19 6 10 1012.2 1011.4 0.0
23/11:30am 16.7 13.6 7.4 54 4.8 E 13 22 7 12 1012.6 1011.7 0.0
23/11:00am 15.1 11.6 7.4 60 3.9 E 15 20 8 11 1012.8 1011.9 0.0
23/10:30am 13.9 10.4 7.2 64 3.4 ESE 15 24 8 13 1012.8 1011.9 0.0
23/10:00am 13.5 9.3 7.3 66 3.1 E 19 24 10 13 1012.8 1011.9 0.0
23/09:30am 13.1 8.8 7.1 67 3.0 E 19 26 10 14 1012.7 1011.8 0.0
23/09:00am 12.4 8.5 6.9 69 2.7 ESE 17 24 9 13 1012.1 1011.3 0.0
23/08:30am 12.0 8.4 6.7 70 2.6 ESE 15 20 8 11 1011.6 1010.8 0.0
23/08:00am 11.8 8.5 6.3 69 2.7 ESE 13 19 7 10 1011.3 1010.5 0.0
23/07:30am 11.6 7.9 6.1 69 2.7 NE 15 19 8 10 1010.9 1010.0 0.0
23/07:00am 11.7 10.4 5.8 67 2.8 E 2 7 1 4 1011.1 1010.2 0.0
23/06:30am 12.0 8.9 5.4 64 3.1 E 11 15 6 8 1010.5 1009.6 0.0
23/06:00am 11.9 9.5 5.1 63 3.2 NE 7 11 4 6 1010.4 1009.5 0.0
23/05:30am 12.1 9.3 5.0 62 3.4 NE 9 11 5 6 1010.4 1009.5 0.0
23/05:00am 12.0 9.2 5.2 63 3.2 NE 9 13 5 7 1010.1 1009.3 0.0
23/04:30am 12.4 9.6 5.1 61 3.5 SSE 9 15 5 8 1010.5 1009.6 0.0
23/04:00am 12.2 9.1 5.4 63 3.2 SE 11 17 6 9 1010.5 1009.6 0.0
23/03:30am 12.5 8.7 5.7 63 3.3 SE 15 22 8 12 1010.7 1009.8 0.0
23/03:00am 12.9 8.1 4.8 58 3.8 SE 19 26 10 14 1010.5 1009.6 0.0
23/02:30am 12.8 8.0 5.7 62 3.4 SSE 20 32 11 17 1010.7 1009.8 0.0
23/02:00am 13.1 8.2 5.3 59 3.7 SSE 20 32 11 17 1010.8 1009.9 0.0
23/01:30am 13.9 8.0 3.9 51 4.7 SSE 24 32 13 17 1011.0 1010.1 0.0
23/01:00am 14.6 10.0 3.7 48 5.1 SE 17 24 9 13 1010.6 1009.7 0.0
23/12:30am 14.6 10.3 3.1 46 5.3 SE 15 19 8 10 1010.6 1009.7 0.0
23/12:00am 14.7 11.2 3.5 47 5.2 SE 11 15 6 8 1011.0 1010.1 0.0
 
Date/Time
CST
Temp
°C
App
Temp
°C
Dew
Point
°C
Rel
Hum
%
Delta-T
°C
Wind Press
QNH
hPa
Press
MSL
hPa
Rain since
9am
mm
Dir  Spd
km/h
Gust
km/h
Spd
kts
Gust
kts
22/11:30pm 14.8 12.0 3.0 45 5.5 ESE 7 9 4 5 1011.1 1010.2 0.0
22/11:00pm 15.1 11.8 2.3 42 5.8 ESE 9 11 5 6 1011.1 1010.2 0.0
22/10:30pm 15.6 12.1 1.4 38 6.4 SE 9 13 5 7 1011.0 1010.1 0.0
22/10:00pm 16.1 12.1 0.3 34 7.0 SE 11 15 6 8 1011.1 1010.2 0.0
22/09:30pm 15.2 10.8 -2.7 29 7.4 SSE 11 13 6 7 1010.9 1010.0 0.0
22/09:00pm 14.2 9.7 -3.1 30 7.0 SSE 11 19 6 10 1011.0 1010.1 0.0
22/08:30pm 12.8 8.3 -3.5 32 6.4 SSW 11 13 6 7 1010.4 1009.5 0.0
22/08:00pm 14.0 9.8 -3.7 29 7.0 SSW 9 11 5 6 1009.6 1008.8 0.0
22/07:30pm 15.1 10.9 -3.7 27 7.6 SSW 9 13 5 7 1008.8 1007.9 0.0
22/07:00pm 16.7 12.5 -3.9 24 8.4 SSW 9 9 5 5 1008.3 1007.4 0.0
22/06:30pm 18.5 14.3 -3.6 22 9.2 SW 9 11 5 6 1007.9 1007.1 0.0
22/06:00pm 20.3 16.0 -4.8 18 10.4 S 9 13 5 7 1007.6 1006.7 0.0
22/05:30pm 21.4 18.5 -4.6 17 10.9 ENE 2 13 1 7 1007.5 1006.6 0.0
22/05:00pm 21.0 17.3 -4.9 17 10.8 SW 6 9 3 5 1007.5 1006.6 0.0
22/04:30pm 21.1 16.4 -4.9 17 10.8 ESE 11 20 6 11 1007.7 1006.9 0.0
22/04:00pm 20.4 16.1 -4.7 18 10.4 SW 9 13 5 7 1008.0 1007.2 0.0
22/03:30pm 20.7 16.4 -5.2 17 10.7 ESE 9 19 5 10 1008.3 1007.4 0.0
22/03:00pm 21.0 16.0 -4.2 18 10.6 ESE 13 22 7 12 1008.8 1007.9 0.0
22/02:30pm 20.0 14.8 -5.8 17 10.4 E 13 26 7 14 1009.1 1008.2 0.0
22/02:00pm 19.8 14.2 -5.9 17 10.3 NE 15 20 8 11 1009.8 1009.0 0.0
22/01:30pm 19.9 15.5 -5.8 17 10.4 NE 9 17 5 9 1010.4 1009.5 0.0
22/01:00pm 19.5 13.5 -6.2 17 10.2 ENE 17 24 9 13 1010.7 1009.8 0.0
22/12:30pm 19.1 13.1 -6.5 17 10.1 ENE 17 24 9 13 1011.4 1010.6 0.0
22/12:00pm 18.9 13.5 -4.5 20 9.6 ESE 15 28 8 15 1011.9 1011.1 0.0
22/11:30am 18.8 12.4 -5.3 19 9.7 E 20 32 11 17 1012.5 1011.6 0.0
22/11:00am 17.9 11.3 -3.5 23 8.9 E 22 28 12 15 1012.8 1011.9 0.0
22/10:30am 17.4 11.4 -1.3 28 8.1 E 20 30 11 16 1013.2 1012.4 0.0
22/10:00am 15.8 10.7 -1.7 30 7.4 E 15 20 8 11 1013.3 1012.5 0.0
22/09:30am 13.9 9.1 -2.9 31 6.8 SE 13 17 7 9 1013.3 1012.5 0.0
22/09:00am 10.9 6.7 -3.9 35 5.7 SSE 9 11 5 6 1013.2 1012.4 0.0
22/08:30am 7.7 3.9 -4.1 43 4.3 SSE 7 11 4 6 1013.2 1012.4 0.0
22/08:00am 5.0 1.3 -4.5 50 3.3 SSE 6 7 3 4 1013.0 1012.2 0.0
22/07:30am 3.3 -1.4 -5.1 54 2.8 SSW 11 17 6 9 1012.6 1011.7 0.0
22/07:00am 2.5 -2.6 -5.1 57 2.7 SSW 13 17 7 9 1012.5 1011.6 0.0
22/06:30am 2.6 -2.5 -5.5 55 2.8 S 13 15 7 8 1012.2 1011.4 0.0
22/06:00am 3.4 -2.1 -5.5 52 3.0 SSW 15 17 8 9 1012.0 1011.2 0.0
22/05:30am 3.3 -2.6 -5.6 52 3.0 SSW 17 19 9 10 1011.8 1011.0 0.0
22/05:00am 3.8 -1.7 -5.4 51 3.1 SSW 15 17 8 9 1011.7 1010.9 0.0
22/04:30am 4.5 -0.6 -5.5 48 3.4 SSW 13 17 7 9 1011.7 1010.9 0.0
22/04:00am 4.8 -0.7 -5.5 47 3.5 SSW 15 19 8 10 1011.8 1011.0 0.0
22/03:30am 5.2 -0.3 -5.5 46 3.7 SSW 15 17 8 9 1012.1 1011.3 0.0
22/03:00am 5.8 0.3 -5.5 44 3.9 SSW 15 19 8 10 1012.1 1011.3 0.0
22/02:30am 6.3 1.2 -5.6 42 4.1 SSW 13 17 7 9 1012.3 1011.5 0.0
22/02:00am 6.8 1.3 -5.5 41 4.3 SSW 15 19 8 10 1012.5 1011.6 0.0
22/01:30am 6.3 0.8 -5.6 42 4.1 S 15 17 8 9 1012.7 1011.8 0.0
22/01:00am 6.8 1.6 -6.2 39 4.5 SSW 13 17 7 9 1012.8 1011.9 0.0
22/12:30am 7.3 2.1 -6.1 38 4.7 S 13 15 7 8 1012.8 1011.9 0.0
22/12:00am 8.1 4.0 -6.4 35 5.1 SSE 7 9 4 5 1012.8 1011.9 0.0
 
Date/Time
CST
Temp
°C
App
Temp
°C
Dew
Point
°C
Rel
Hum
%
Delta-T
°C
Wind Press
QNH
hPa
Press
MSL
hPa
Rain since
9am
mm
Dir  Spd
km/h
Gust
km/h
Spd
kts
Gust
kts
21/11:30pm 8.1 3.3 -6.4 35 5.1 S 11 15 6 8 1012.9 1012.0 0.0
21/11:00pm 9.1 4.2 -7.1 31 5.6 S 11 13 6 7 1012.9 1012.0 0.0
21/10:30pm 10.1 5.2 -7.1 29 6.0 SSW 11 15 6 8 1012.9 1012.0 0.0
21/10:00pm 12.0 6.3 -7.4 25 6.9 SSW 15 20 8 11 1012.9 1012.0 0.0
21/09:30pm 13.2 7.1 -8.0 22 7.6 SSW 17 22 9 12 1012.7 1011.8 0.0
21/09:00pm 13.6 7.9 -7.7 22 7.7 SW 15 17 8 9 1012.5 1011.6 0.0
21/08:30pm 15.1 9.0 -8.3 19 8.5 SW 17 22 9 12 1012.0 1011.2 0.0
21/08:00pm 16.2 10.4 -8.1 18 9.0 SSW 15 20 8 11 1011.7 1010.9 0.0
21/07:30pm 17.9 11.8 -8.2 16 9.8 SW 17 22 9 12 1011.3 1010.5 0.0
21/07:00pm 19.1 12.9 -9.0 14 10.5 SW 17 24 9 13 1010.9 1010.0 0.0
21/06:30pm 20.4 13.7 -8.0 14 11.0 SW 20 30 11 16 1010.5 1009.6 0.0
21/06:00pm 22.1 15.6 -5.7 15 11.5 WSW 20 32 11 17 1009.8 1009.0 0.0
21/05:30pm 23.0 16.2 -5.0 15 11.8 WSW 22 32 12 17 1009.6 1008.8 0.0
21/05:00pm 23.3 16.2 -4.8 15 11.9 WSW 24 35 13 19 1009.4 1008.5 0.0
21/04:30pm 23.6 15.9 -2.8 17 11.7 W 28 37 15 20 1009.3 1008.4 0.0

Other Formats:

Comma delimited format used in spreadsheet applications
http://www.bom.gov.au/fwo/IDD60801/IDD60801.94462.axf

JavaScript Object Notation format (JSON) in row-major order
http://www.bom.gov.au/fwo/IDD60801/IDD60801.94462.json